< < Back
Terminal Aerodrome Forecast


Current Version              Previous Versions:   1  2  3  4  5  6  7  8  9  

Terminal Aerodrome Forecast

940
FTUS44 KMOB 191700
TAFMOB
TAF
KMOB 191732Z 1918/2018 22008KT P6SM BKN035
     FM192100 22008KT P6SM VCTS SCT035CB
     FM200300 19003KT P6SM SKC=

Latest METAR

163
SAUS80 KWBC 202000 RRA
MTRMOB
METAR KMOB 201956Z 00000KT 10SM FEW040CB BKN250 33/21 A3006 RMK AO2
SLP175 CB SW MOV E T03280211


USA.gov is the U.S. government's official web portal to all federal, state and local government web resources and services.